Time;durP1;ratioP1;P1;durP2;ratioP2;P2;SDS_P1;SDS_P2;PMS_P1;PMS_P2;Temp;Humidity;BMP_temperature;BMP_pressure;BME280_temperature;BME280_humidity;BME280_pressure;Samples;Min_cycle;Max_cycle;Signal;HPM_P1;HPM_P2
2022/01/28 00:01:02;;;;;;;10.82;8.73;;;;;;;5.57;41.55;101453.72;5134035;27;20410;-77
2022/01/28 00:03:31;;;;;;;18.63;13.80;;;;;;;5.77;40.90;101445.69;5133965;27;20418;-77
2022/01/28 00:05:59;;;;;;;12.93;10.20;;;;;;;5.70;41.18;101444.31;5134471;27;20416;-77
2022/01/28 00:08:27;;;;;;;16.08;11.48;;;;;;;5.33;41.88;101440.91;5133821;27;20484;-76
2022/01/28 00:10:54;;;;;;;19.50;13.68;;;;;;;5.33;42.14;101435.66;5133786;27;20922;-77
2022/01/28 00:13:25;;;;;;;15.98;11.93;;;;;;;5.41;41.91;101436.09;5134320;27;20401;-78
2022/01/28 00:18:55;;;;;;;16.08;12.02;;;;;;;5.54;41.41;101432.88;5118799;27;20413;-76
2022/01/28 00:38:09;;;;;;;11.65;9.27;;;;;;;5.79;40.25;101408.78;5133522;27;20902;-77
2022/01/28 00:40:36;;;;;;;19.02;14.95;;;;;;;5.79;40.22;101409.63;5133844;27;20437;-77
2022/01/28 00:43:05;;;;;;;14.13;11.65;;;;;;;5.83;40.07;101398.03;5133748;27;20783;-77
2022/01/28 00:45:32;;;;;;;11.05;9.25;;;;;;;5.88;39.77;101395.19;5133714;27;20516;-77
2022/01/28 00:47:59;;;;;;;7.78;6.78;;;;;;;6.07;39.63;101405.63;5134041;27;20413;-76
2022/01/28 00:50:26;;;;;;;13.85;11.25;;;;;;;6.25;39.10;101400.31;5133782;27;20421;-78
2022/01/28 00:52:55;;;;;;;10.23;8.15;;;;;;;6.25;38.98;101401.16;5133135;27;20790;-78
2022/01/28 00:55:22;;;;;;;8.57;7.00;;;;;;;6.14;39.31;101390.34;5133462;27;20505;-77
2022/01/28 00:57:49;;;;;;;12.00;9.57;;;;;;;6.18;39.11;101397.13;5133294;27;20958;-77
2022/01/28 01:00:16;;;;;;;9.03;7.90;;;;;;;6.11;39.37;101391.38;5132501;27;20488;-77
2022/01/28 01:02:43;;;;;;;11.57;9.60;;;;;;;6.08;39.26;101393.31;5115478;27;20413;-77
2022/01/28 01:05:10;;;;;;;12.80;9.15;;;;;;;6.09;39.54;101390.59;5133280;27;20402;-76
2022/01/28 01:07:38;;;;;;;9.57;7.63;;;;;;;6.06;39.48;101382.84;5132555;27;20501;-77
2022/01/28 01:10:08;;;;;;;10.68;8.50;;;;;;;6.13;39.29;101383.41;5133283;27;20963;-77
2022/01/28 01:12:41;;;;;;;9.68;7.28;;;;;;;6.13;39.37;101381.59;5133039;27;20437;-76
2022/01/28 01:15:09;;;;;;;8.45;7.10;;;;;;;6.22;39.10;101381.13;5132873;27;20906;-76
2022/01/28 01:17:39;;;;;;;10.07;7.82;;;;;;;6.28;39.09;101369.41;5132412;27;20398;-77
2022/01/28 01:20:20;;;;;;;9.23;7.53;;;;;;;6.42;38.90;101377.38;5132827;27;20509;-77
2022/01/28 01:22:54;;;;;;;10.05;8.88;;;;;;;6.45;38.62;101371.13;5132866;27;20410;-77
2022/01/28 01:25:27;;;;;;;8.45;7.07;;;;;;;6.48;38.47;101364.84;5132310;27;20402;-77
2022/01/28 01:27:57;;;;;;;7.88;6.68;;;;;;;6.51;38.38;101359.38;5132634;27;20492;-78
2022/01/28 01:30:27;;;;;;;7.03;6.13;;;;;;;6.30;38.79;101364.06;5133417;27;20410;-77
2022/01/28 01:32:54;;;;;;;8.45;7.13;;;;;;;6.38;38.70;101356.59;5132458;27;20406;-77
2022/01/28 01:35:22;;;;;;;12.23;9.65;;;;;;;6.19;39.30;101354.97;5131717;27;20875;-77
2022/01/28 01:37:49;;;;;;;9.63;7.72;;;;;;;6.10;39.39;101352.81;5132638;27;20405;-77
2022/01/28 01:40:24;;;;;;;9.25;7.35;;;;;;;6.01;39.55;101351.53;5132626;27;20493;-77
2022/01/28 01:43:04;;;;;;;7.83;6.97;;;;;;;6.41;38.68;101349.38;5131893;27;20485;-78
2022/01/28 01:53:46;;;;;;;7.85;6.53;;;;;;;6.48;38.61;101339.34;5116364;27;20454;-76
2022/01/28 01:56:14;;;;;;;8.43;7.15;;;;;;;6.72;38.09;101338.91;5132250;27;20414;-77
2022/01/28 01:58:43;;;;;;;8.73;6.72;;;;;;;6.76;38.17;101335.19;5132271;27;20409;-75
2022/01/28 02:01:10;;;;;;;8.40;6.60;;;;;;;6.76;38.06;101336.03;5132411;27;20401;-77
2022/01/28 02:03:37;;;;;;;7.03;6.30;;;;;;;7.02;37.79;101328.41;5131317;27;20496;-77
2022/01/28 02:06:04;;;;;;;6.25;5.43;;;;;;;7.09;37.49;101313.94;5132573;27;20409;-77
2022/01/28 02:08:33;;;;;;;6.63;5.53;;;;;;;7.11;37.46;101309.41;5114134;27;20409;-77
2022/01/28 02:11:02;;;;;;;7.40;6.22;;;;;;;7.21;37.18;101315.00;5132109;27;20497;-77
2022/01/28 02:13:31;;;;;;;6.73;5.70;;;;;;;7.27;37.04;101300.63;5132052;27;20434;-76
2022/01/28 02:16:00;;;;;;;6.43;5.40;;;;;;;7.23;37.04;101300.78;5132246;27;20478;-76
2022/01/28 02:18:27;;;;;;;6.72;5.65;;;;;;;7.31;36.94;101302.97;5132173;27;20489;-77
2022/01/28 02:21:03;;;;;;;6.57;5.40;;;;;;;7.43;36.76;101302.22;5131073;27;20402;-77
2022/01/28 02:23:31;;;;;;;7.25;6.07;;;;;;;7.31;36.89;101297.69;5132090;27;20420;-77
2022/01/28 02:25:59;;;;;;;8.63;6.80;;;;;;;7.32;37.17;101306.44;5131558;27;20410;-76
2022/01/28 02:28:28;;;;;;;10.43;7.65;;;;;;;6.99;37.53;101299.59;5131760;27;20790;-76
2022/01/28 02:30:55;;;;;;;9.65;7.43;;;;;;;6.92;37.85;101299.13;5131405;27;20417;-76
2022/01/28 02:33:25;;;;;;;10.23;8.00;;;;;;;7.11;37.61;101304.16;5131935;27;20556;-76
2022/01/28 02:35:52;;;;;;;9.80;7.38;;;;;;;6.85;38.16;101297.75;5131797;27;20429;-76
2022/01/28 02:38:23;;;;;;;9.40;6.85;;;;;;;6.80;38.34;101297.19;5131558;27;20923;-75
2022/01/28 02:40:55;;;;;;;8.83;7.10;;;;;;;6.93;38.20;101300.81;5131264;27;20968;-76
2022/01/28 02:43:31;;;;;;;10.10;7.53;;;;;;;6.96;38.03;101298.00;5131700;27;20462;-77
2022/01/28 02:46:05;;;;;;;8.27;6.88;;;;;;;7.26;37.40;101302.41;5131596;27;20418;-76
2022/01/28 02:48:34;;;;;;;7.47;6.35;;;;;;;7.18;37.50;101291.47;5131219;27;20832;-75
2022/01/28 02:51:06;;;;;;;8.50;6.55;;;;;;;7.11;37.71;101298.03;5131619;27;20470;-76
2022/01/28 02:53:43;;;;;;;7.35;6.20;;;;;;;7.18;37.53;101302.03;5131654;27;20446;-76
2022/01/28 02:56:21;;;;;;;7.63;6.20;;;;;;;7.15;37.37;101302.19;5112632;27;20432;-76
2022/01/28 02:58:48;;;;;;;6.38;5.47;;;;;;;7.26;37.11;101302.41;5131159;27;20414;-77
2022/01/28 03:01:17;;;;;;;8.20;6.75;;;;;;;7.21;37.14;101305.31;5131372;27;20405;-76
2022/01/28 03:03:45;;;;;;;9.07;7.32;;;;;;;7.12;37.12;101311.13;5130928;27;20946;-75
2022/01/28 03:06:14;;;;;;;7.18;6.03;;;;;;;7.15;37.08;101299.56;5130136;27;20993;-76
2022/01/28 03:08:51;;;;;;;7.57;6.43;;;;;;;7.10;36.98;101307.75;5130966;27;20493;-77
2022/01/28 03:14:15;;;;;;;6.93;6.03;;;;;;;6.85;37.43;101310.94;5131041;27;20885;-76
2022/01/28 03:16:58;;;;;;;9.57;7.60;;;;;;;6.87;37.42;101316.13;5130684;27;20406;-77
2022/01/28 03:19:28;;;;;;;6.93;5.40;;;;;;;6.81;37.50;101310.28;5131106;27;20497;-77
2022/01/28 03:21:56;;;;;;;6.32;5.25;;;;;;;6.78;37.43;101317.50;5131259;27;20505;-77
2022/01/28 03:24:26;;;;;;;7.43;6.00;;;;;;;6.75;37.26;101310.63;5130857;27;20506;-77
2022/01/28 03:26:58;;;;;;;6.57;5.47;;;;;;;6.68;37.32;101306.66;5130754;27;20886;-77
2022/01/28 03:29:25;;;;;;;7.50;6.57;;;;;;;6.61;37.56;101300.88;5130645;27;20406;-77
2022/01/28 03:31:52;;;;;;;6.17;5.43;;;;;;;6.67;37.36;101309.34;5130579;27;20525;-77
2022/01/28 03:34:19;;;;;;;12.60;11.25;;;;;;;6.60;37.44;101314.97;5130707;27;20402;-75
2022/01/28 03:36:46;;;;;;;12.85;10.32;;;;;;;6.75;37.26;101305.38;5130337;27;20500;-76
2022/01/28 03:39:13;;;;;;;24.58;15.88;;;;;;;6.72;37.26;101304.69;5130562;28;20430;-76
2022/01/28 03:41:42;;;;;;;6.15;5.10;;;;;;;6.71;37.38;101297.72;5130394;28;20791;-77
2022/01/28 03:44:09;;;;;;;16.95;15.25;;;;;;;6.76;37.07;101299.16;5130167;28;20489;-77
2022/01/28 03:46:36;;;;;;;8.97;8.07;;;;;;;6.77;37.14;101306.13;5130012;28;20406;-75
2022/01/28 03:49:03;;;;;;;11.60;9.57;;;;;;;6.78;37.19;101301.69;5130496;28;20488;-76
2022/01/28 03:51:30;;;;;;;7.43;6.57;;;;;;;6.74;37.18;101313.34;5130341;28;20493;-77
2022/01/28 03:53:57;;;;;;;11.98;10.82;;;;;;;6.74;37.15;101306.28;5130447;28;20854;-77
2022/01/28 03:56:25;;;;;;;6.25;5.65;;;;;;;6.74;37.38;101287.03;5130012;28;20509;-76
2022/01/28 03:58:53;;;;;;;11.70;9.65;;;;;;;6.65;37.44;101304.19;5129733;28;20476;-77
2022/01/28 04:01:25;;;;;;;28.65;25.95;;;;;;;6.64;37.62;101302.50;5129250;28;20401;-77
2022/01/28 04:04:23;;;;;;;18.23;16.55;;;;;;;6.48;37.84;101299.88;5130582;28;20414;-78
2022/01/28 04:12:18;;;;;;;8.35;7.45;;;;;;;6.57;37.52;101311.69;5130116;28;20397;-77
2022/01/28 04:15:01;;;;;;;7.88;6.70;;;;;;;6.55;37.48;101306.50;5129523;28;20427;-77
2022/01/28 04:17:28;;;;;;;19.23;17.42;;;;;;;6.49;37.78;101300.72;5129743;28;20866;-77
2022/01/28 04:19:55;;;;;;;7.22;6.53;;;;;;;6.46;37.80;101301.75;5129841;28;20851;-78
2022/01/28 04:22:22;;;;;;;13.18;11.88;;;;;;;6.39;37.84;101300.41;5129592;28;20494;-78
2022/01/28 04:24:49;;;;;;;9.82;8.20;;;;;;;6.51;37.84;101298.84;5128699;28;20926;-77
2022/01/28 04:27:16;;;;;;;18.52;16.63;;;;;;;6.34;37.91;101298.00;5129889;28;20927;-77
2022/01/28 04:29:43;;;;;;;17.73;15.27;;;;;;;6.44;37.62;101297.50;5130369;28;20428;-76
2022/01/28 04:32:12;;;;;;;12.32;10.40;;;;;;;6.46;37.77;101295.63;5130004;28;20406;-76
2022/01/28 04:34:39;;;;;;;14.30;12.82;;;;;;;6.39;37.77;101285.44;5129930;28;20406;-78
2022/01/28 04:37:18;;;;;;;11.17;10.07;;;;;;;6.27;37.99;101291.41;5129770;28;20911;-77
2022/01/28 04:39:50;;;;;;;12.83;11.53;;;;;;;6.24;37.79;101282.81;5129393;28;20408;-77
2022/01/28 04:42:31;;;;;;;23.65;21.35;;;;;;;6.23;38.15;101284.63;5128413;27;20418;-77
2022/01/28 04:45:04;;;;;;;17.30;15.55;;;;;;;6.20;38.07;101284.78;5133536;27;20490;-77
2022/01/28 04:47:40;;;;;;;22.40;17.35;;;;;;;6.29;37.87;101286.06;5134614;27;20410;-76
2022/01/28 04:50:16;;;;;;;25.10;20.45;;;;;;;6.20;38.04;101283.00;5129348;27;20796;-75
2022/01/28 04:55:45;;;;;;;15.45;13.90;;;;;;;6.15;38.17;101292.94;5132898;27;20417;-76
2022/01/28 04:58:24;;;;;;;8.02;7.07;;;;;;;6.08;38.26;101296.81;5129114;27;20825;-78
2022/01/28 05:01:02;;;;;;;8.23;7.00;;;;;;;6.12;38.13;101286.97;5133029;27;20406;-77
2022/01/28 05:03:47;;;;;;;9.60;8.75;;;;;;;6.22;37.94;101291.66;5132965;27;20410;-78
2022/01/28 05:12:25;;;;;;;11.07;10.07;;;;;;;6.34;37.83;101287.47;5132116;27;21287;-77
2022/01/28 05:15:11;;;;;;;9.20;8.02;;;;;;;6.49;37.45;101290.19;5132613;27;20401;-77
2022/01/28 05:26:22;;;;;;;14.30;11.10;;;;;;;6.64;36.83;101301.66;5132618;27;20472;-75
2022/01/28 05:28:49;;;;;;;10.93;7.72;;;;;;;6.70;36.65;101303.94;5131412;27;20413;-75
2022/01/28 05:31:17;;;;;;;22.90;10.40;;;;;;;6.70;36.94;101311.84;5132080;27;20408;-77
2022/01/28 05:33:44;;;;;;;17.73;12.45;;;;;;;6.89;36.26;101316.88;5132420;27;20401;-75
2022/01/28 05:36:13;;;;;;;19.92;14.35;;;;;;;6.71;36.80;101311.75;5117345;27;20461;-77
2022/01/28 05:38:40;;;;;;;15.23;11.75;;;;;;;6.70;36.87;101319.72;5132606;27;20765;-77
2022/01/28 05:41:07;;;;;;;17.08;15.27;;;;;;;6.80;36.64;101318.25;5114143;27;20927;-76
2022/01/28 05:43:34;;;;;;;15.45;13.68;;;;;;;6.94;36.52;101317.47;5132302;27;20412;-76
2022/01/28 05:46:01;;;;;;;11.82;9.70;;;;;;;7.02;36.18;101315.25;5132598;27;20414;-75
2022/01/28 05:48:28;;;;;;;19.10;11.73;;;;;;;7.07;36.23;101313.19;5132473;27;20444;-76
2022/01/28 05:50:54;;;;;;;11.77;9.63;;;;;;;7.08;36.00;101317.53;5131905;27;20406;-77
2022/01/28 05:53:23;;;;;;;13.10;9.85;;;;;;;7.10;36.09;101318.28;5112697;27;20841;-76
2022/01/28 05:55:50;;;;;;;11.90;8.25;;;;;;;7.17;35.95;101321.38;5131781;27;20885;-75
2022/01/28 05:58:17;;;;;;;14.80;9.63;;;;;;;7.48;35.33;101325.72;5132044;27;20492;-75
2022/01/28 06:00:44;;;;;;;57.70;40.20;;;;;;;7.65;35.10;101329.94;5131649;27;20405;-76
2022/01/28 06:03:11;;;;;;;45.40;26.27;;;;;;;7.79;34.91;101339.66;5130338;27;20437;-76
2022/01/28 06:05:38;;;;;;;27.60;18.07;;;;;;;7.52;35.17;101337.75;5129141;27;20844;-76
2022/01/28 06:08:05;;;;;;;25.73;14.88;;;;;;;7.31;35.61;101350.41;5129242;27;20501;-75
2022/01/28 06:10:33;;;;;;;19.75;11.98;;;;;;;7.35;35.81;101359.84;5130331;27;20493;-75
2022/01/28 06:13:00;;;;;;;14.15;8.90;;;;;;;7.18;36.29;101360.00;5131941;27;20476;-75
2022/01/28 06:15:27;;;;;;;14.35;10.35;;;;;;;8.98;33.69;101352.38;5131880;27;20443;-76
2022/01/28 06:17:54;;;;;;;13.50;10.73;;;;;;;12.55;28.49;101342.16;5131460;27;20930;-76
2022/01/28 06:20:21;;;;;;;13.35;10.48;;;;;;;14.53;25.64;101331.56;5131889;27;20795;-76
2022/01/28 06:22:49;;;;;;;14.80;11.37;;;;;;;15.69;24.25;101341.34;5131702;27;20421;-75
2022/01/28 06:25:16;;;;;;;14.70;12.53;;;;;;;17.26;22.45;101339.47;5131427;27;20447;-75
2022/01/28 06:27:45;;;;;;;16.40;14.65;;;;;;;18.35;20.66;101332.69;5131649;27;20420;-76
2022/01/28 06:30:13;;;;;;;31.80;28.63;;;;;;;15.60;23.22;101335.06;5131662;27;20448;-76
2022/01/28 06:32:40;;;;;;;13.50;12.10;;;;;;;16.07;22.99;101336.88;5131274;27;20414;-76
2022/01/28 06:35:09;;;;;;;30.35;27.25;;;;;;;17.82;20.98;101339.97;5131427;27;20474;-74
2022/01/28 06:37:38;;;;;;;70.07;56.22;;;;;;;19.04;19.92;101340.56;5130973;27;20833;-74
2022/01/28 06:40:06;;;;;;;15.97;14.20;;;;;;;20.71;18.53;101345.16;5131126;27;20496;-74
2022/01/28 06:42:33;;;;;;;19.88;18.00;;;;;;;21.76;17.22;101333.63;5130727;27;20485;-75
2022/01/28 06:45:02;;;;;;;16.83;15.10;;;;;;;22.10;16.66;101341.16;5130101;27;20513;-72
2022/01/28 06:47:29;;;;;;;41.85;38.53;;;;;;;23.45;15.46;101355.03;5128859;27;20445;-73
2022/01/28 06:49:56;;;;;;;25.38;23.17;;;;;;;23.57;15.50;101343.47;5130638;27;20420;-75
2022/01/28 06:52:23;;;;;;;12.15;10.90;;;;;;;22.20;16.13;101352.50;5130668;27;20784;-73
2022/01/28 06:54:50;;;;;;;17.10;15.68;;;;;;;23.31;15.59;101360.34;5130683;27;20406;-74
2022/01/28 06:57:17;;;;;;;20.23;18.43;;;;;;;24.35;14.40;101367.66;5130966;27;20428;-75
2022/01/28 06:59:44;;;;;;;21.65;19.55;;;;;;;24.83;14.34;101374.91;5131066;27;20480;-75
2022/01/28 07:02:12;;;;;;;61.00;55.40;;;;;;;27.00;12.97;101380.28;5130883;27;20406;-73
2022/01/28 07:04:39;;;;;;;28.67;25.60;;;;;;;27.54;12.43;101386.97;5130488;27;20488;-73
2022/01/28 07:07:07;;;;;;;22.45;19.95;;;;;;;29.17;11.25;101400.09;5129215;27;20835;-75
2022/01/28 07:09:35;;;;;;;13.95;12.65;;;;;;;25.46;13.14;101408.97;5130616;27;20422;-74
2022/01/28 07:12:02;;;;;;;10.00;7.60;;;;;;;27.21;12.36;101419.88;5130861;27;20433;-74
2022/01/28 07:14:29;;;;;;;13.90;11.20;;;;;;;27.20;12.09;101431.81;5130826;27;20441;-75
2022/01/28 07:16:56;;;;;;;9.95;8.98;;;;;;;28.85;11.48;101438.53;5130676;27;20433;-75
2022/01/28 07:19:25;;;;;;;8.85;6.68;;;;;;;26.41;12.61;101452.06;5129062;27;20414;-74
2022/01/28 07:21:52;;;;;;;12.27;8.90;;;;;;;25.78;13.31;101465.09;5128879;27;20405;-75
2022/01/28 07:24:19;;;;;;;17.83;10.30;;;;;;;26.68;12.83;101447.38;5130868;27;20497;-74
2022/01/28 07:26:48;;;;;;;15.40;9.80;;;;;;;29.14;11.15;101466.88;5129441;27;20501;-74
2022/01/28 07:29:15;;;;;;;8.65;7.05;;;;;;;29.52;11.12;101476.59;5130337;27;20484;-75
2022/01/28 07:31:43;;;;;;;10.87;8.67;;;;;;;31.18;9.83;101481.81;5130260;27;20854;-75
2022/01/28 07:34:10;;;;;;;14.20;10.27;;;;;;;31.33;10.33;101466.50;5129345;27;20410;-75
2022/01/28 07:36:39;;;;;;;20.75;18.67;;;;;;;32.09;9.67;101455.09;5130261;27;20513;-76
2022/01/28 07:39:07;;;;;;;13.30;12.13;;;;;;;30.86;10.30;101457.66;5130745;27;20405;-76
2022/01/28 07:41:35;;;;;;;24.13;22.15;;;;;;;32.21;9.71;101456.91;5130339;28;20417;-75
2022/01/28 07:44:02;;;;;;;14.27;13.18;;;;;;;32.29;9.78;101450.97;5130145;28;20441;-76
2022/01/28 07:46:29;;;;;;;10.07;9.25;;;;;;;29.52;11.13;101452.03;5130512;28;20527;-75
2022/01/28 07:48:57;;;;;;;27.40;24.92;;;;;;;25.45;14.06;101435.28;5130931;28;20488;-75
2022/01/28 07:51:24;;;;;;;12.18;10.98;;;;;;;22.00;16.96;101443.13;5129949;28;20795;-74
2022/01/28 07:53:52;;;;;;;11.68;10.40;;;;;;;22.40;17.01;101446.41;5129828;28;20413;-73
2022/01/28 07:56:22;;;;;;;8.68;7.78;;;;;;;23.27;16.62;101439.31;5128573;28;20525;-73
2022/01/28 07:58:49;;;;;;;12.73;11.48;;;;;;;26.10;14.51;101443.59;5129185;28;20459;-74
2022/01/28 08:01:16;;;;;;;13.13;10.95;;;;;;;27.47;13.46;101450.69;5129968;28;20959;-74
2022/01/28 08:03:43;;;;;;;17.35;15.75;;;;;;;26.78;13.54;101456.75;5129901;28;20852;-76
2022/01/28 08:06:10;;;;;;;10.93;9.93;;;;;;;23.85;15.93;101460.88;5130212;28;20397;-76
2022/01/28 08:08:37;;;;;;;17.15;15.57;;;;;;;22.79;16.78;101456.06;5130215;28;20412;-77
2022/01/28 08:11:05;;;;;;;12.45;11.18;;;;;;;20.85;18.74;101470.94;5094975;28;20475;-78
2022/01/28 08:13:32;;;;;;;9.32;8.52;;;;;;;19.56;20.13;101469.19;5130114;28;20429;-78
2022/01/28 08:16:00;;;;;;;13.48;12.25;;;;;;;19.20;20.91;101469.47;5111570;28;20473;-76
2022/01/28 08:18:26;;;;;;;9.43;8.25;;;;;;;18.21;21.89;101474.47;5132849;27;20497;-76
2022/01/28 08:20:53;;;;;;;11.07;8.52;;;;;;;17.59;23.08;101479.84;5132453;27;20490;-75
2022/01/28 08:23:20;;;;;;;15.60;14.10;;;;;;;16.69;23.92;101481.56;5134123;27;20497;-75
2022/01/28 08:25:48;;;;;;;8.27;7.45;;;;;;;15.85;25.14;101478.88;5133778;27;20402;-75
2022/01/28 08:28:17;;;;;;;9.43;8.40;;;;;;;15.74;25.72;101495.91;5133591;27;20492;-76
2022/01/28 08:30:43;;;;;;;10.80;9.80;;;;;;;15.26;26.25;101500.19;5133145;27;20895;-76
2022/01/28 08:33:10;;;;;;;13.95;11.63;;;;;;;14.88;27.32;101492.97;5132018;27;20409;-77
2022/01/28 08:35:39;;;;;;;14.25;11.98;;;;;;;14.37;27.87;101508.03;5131311;27;20455;-77
2022/01/28 08:38:14;;;;;;;18.08;14.25;;;;;;;14.34;28.54;101521.63;5115482;27;20406;-75
2022/01/28 08:40:41;;;;;;;13.02;11.38;;;;;;;14.30;28.81;101530.88;5133835;27;20414;-76
2022/01/28 08:43:08;;;;;;;19.70;16.08;;;;;;;14.10;29.18;101527.22;5132538;27;20922;-76
2022/01/28 08:45:37;;;;;;;15.00;12.93;;;;;;;13.83;29.70;101542.75;5133641;27;20444;-77
2022/01/28 08:48:05;;;;;;;17.17;13.15;;;;;;;14.14;29.13;101540.16;5133437;27;20412;-76
2022/01/28 08:50:32;;;;;;;12.18;9.85;;;;;;;14.08;29.52;101554.00;5115015;27;20800;-76
2022/01/28 08:52:59;;;;;;;14.32;11.15;;;;;;;14.06;29.92;101557.78;5133014;27;21017;-76
2022/01/28 08:55:26;;;;;;;13.02;10.65;;;;;;;13.99;29.95;101565.41;5133318;27;20442;-77
2022/01/28 08:57:53;;;;;;;13.65;10.65;;;;;;;13.87;30.32;101569.09;5133706;27;20428;-77
2022/01/28 09:00:23;;;;;;;14.23;12.27;;;;;;;13.93;30.53;101566.81;5133212;27;20873;-77
2022/01/28 09:02:51;;;;;;;14.02;9.85;;;;;;;14.28;30.72;101564.81;5098184;27;20413;-77
2022/01/28 09:05:19;;;;;;;12.45;9.82;;;;;;;14.49;30.65;101573.59;5133144;27;20496;-77
2022/01/28 09:07:48;;;;;;;10.93;9.63;;;;;;;14.58;30.70;101564.88;5133357;27;20405;-77
2022/01/28 09:10:19;;;;;;;11.77;8.52;;;;;;;14.38;30.67;101568.38;5133054;27;20417;-77
2022/01/28 09:13:10;;;;;;;14.55;10.50;;;;;;;14.63;30.51;101570.63;5132705;27;20427;-77
2022/01/28 09:15:38;;;;;;;12.77;9.25;;;;;;;14.25;31.48;101555.22;5130937;27;20409;-75
2022/01/28 09:18:09;;;;;;;16.58;8.63;;;;;;;14.11;31.68;101559.09;5113347;27;20779;-75
2022/01/28 09:20:37;;;;;;;12.00;8.82;;;;;;;14.77;30.93;101553.44;5133050;27;20463;-77
2022/01/28 09:23:05;;;;;;;10.50;8.63;;;;;;;15.09;30.02;101543.59;5132477;27;20412;-76
2022/01/28 09:25:33;;;;;;;12.85;9.57;;;;;;;15.42;29.48;101543.22;5132474;27;20459;-77
2022/01/28 09:28:00;;;;;;;11.57;9.73;;;;;;;16.45;28.15;101540.09;5132763;27;20418;-76
2022/01/28 09:30:27;;;;;;;12.25;9.18;;;;;;;20.29;23.58;101540.09;5131282;27;20408;-77
2022/01/28 09:32:56;;;;;;;13.20;11.15;;;;;;;20.15;24.01;101529.03;5132467;27;20416;-76
2022/01/28 09:35:25;;;;;;;15.75;12.48;;;;;;;23.92;19.57;101543.75;5132214;27;20406;-76
2022/01/28 09:37:53;;;;;;;14.38;12.23;;;;;;;24.20;18.50;101546.47;5132527;27;20799;-78
2022/01/28 09:40:20;;;;;;;13.55;12.15;;;;;;;24.51;18.56;101547.13;5132430;27;20493;-76
2022/01/28 09:42:48;;;;;;;13.63;11.23;;;;;;;23.90;18.68;101539.56;5132378;27;20437;-76
2022/01/28 09:45:17;;;;;;;15.57;13.98;;;;;;;28.58;14.94;101557.16;5132560;27;20438;-76
2022/01/28 09:47:46;;;;;;;10.55;9.52;;;;;;;29.04;14.32;101558.50;5132191;27;20406;-77
2022/01/28 09:50:14;;;;;;;10.15;9.15;;;;;;;28.21;14.44;101568.81;5132446;27;20841;-76
2022/01/28 09:52:43;;;;;;;14.35;11.57;;;;;;;22.82;19.29;101566.41;5132158;27;20494;-77
2022/01/28 09:55:12;;;;;;;13.50;10.20;;;;;;;19.79;22.38;101580.47;5132118;27;20485;-77
2022/01/28 09:57:39;;;;;;;11.77;10.40;;;;;;;18.10;24.73;101581.97;5132318;27;20451;-76
2022/01/28 10:00:08;;;;;;;16.33;12.17;;;;;;;17.63;25.36;101584.88;5132264;27;20494;-76
2022/01/28 10:02:55;;;;;;;12.95;10.93;;;;;;;16.33;26.99;101593.72;5131456;27;20410;-76
2022/01/28 10:05:26;;;;;;;17.40;9.30;;;;;;;14.76;29.74;101593.56;5132127;27;20434;-77
2022/01/28 10:08:12;;;;;;;21.27;10.32;;;;;;;13.57;32.26;101595.50;5131840;27;20414;-77
2022/01/28 10:10:55;;;;;;;17.23;10.50;;;;;;;13.06;33.31;101589.84;5132211;27;20401;-77
2022/01/28 10:13:27;;;;;;;11.95;9.45;;;;;;;13.86;32.14;101578.09;5132003;27;20406;-76
2022/01/28 10:16:06;;;;;;;15.27;13.30;;;;;;;13.47;32.71;101573.25;5121432;27;20424;-76
2022/01/28 10:18:52;;;;;;;18.73;11.40;;;;;;;14.17;31.40;101579.88;5135361;27;20441;-74
2022/01/28 10:21:28;;;;;;;11.32;8.82;;;;;;;14.39;31.16;101586.03;5113607;27;20501;-77
2022/01/28 10:24:05;;;;;;;9.20;8.02;;;;;;;14.38;31.17;101582.53;5129938;27;20412;-77
2022/01/28 10:26:35;;;;;;;9.77;7.80;;;;;;;14.52;31.14;101573.38;5131030;27;20424;-78
2022/01/28 10:29:04;;;;;;;13.23;7.20;;;;;;;14.02;31.88;101581.16;5131228;27;20445;-77
2022/01/28 10:31:53;;;;;;;13.40;8.18;;;;;;;14.25;31.66;101589.88;5131232;27;20398;-75
2022/01/28 10:34:26;;;;;;;9.63;7.60;;;;;;;15.65;29.53;101582.19;5125473;27;20497;-75
2022/01/28 10:37:11;;;;;;;13.23;7.60;;;;;;;15.05;29.95;101591.03;5131134;27;20464;-76
2022/01/28 10:39:48;;;;;;;12.27;7.53;;;;;;;14.30;30.94;101600.16;5131334;27;20406;-77
2022/01/28 10:42:18;;;;;;;12.10;7.38;;;;;;;13.77;31.74;101615.16;5130001;27;20402;-77
2022/01/28 10:44:54;;;;;;;9.63;7.40;;;;;;;13.50;31.98;101598.75;5130236;27;20445;-75
2022/01/28 10:47:37;;;;;;;10.10;7.53;;;;;;;13.31;32.59;101594.94;5110237;27;20429;-70
2022/01/28 10:50:25;;;;;;;12.70;10.67;;;;;;;13.45;32.47;101598.31;5126070;27;20406;-74
2022/01/28 10:53:00;;;;;;;11.77;5.88;;;;;;;13.21;32.58;101609.91;5129580;27;20401;-74
2022/01/28 10:55:30;;;;;;;19.85;9.80;;;;;;;12.95;32.53;101604.00;5129515;27;20489;-75
2022/01/28 10:57:59;;;;;;;8.73;5.70;;;;;;;12.82;32.91;101615.59;5129308;27;20513;-75
2022/01/28 11:00:29;;;;;;;12.25;6.80;;;;;;;12.99;32.68;101618.75;5128577;27;20844;-74
2022/01/28 11:02:58;;;;;;;11.40;7.60;;;;;;;13.14;32.53;101622.03;5129414;27;20826;-74
2022/01/28 11:05:26;;;;;;;11.50;8.77;;;;;;;12.96;33.11;101613.69;5130817;27;20417;-73
2022/01/28 11:07:54;;;;;;;11.98;6.80;;;;;;;12.86;33.22;101620.69;5130938;27;20409;-74
2022/01/28 11:10:21;;;;;;;12.10;6.50;;;;;;;12.70;33.13;101619.22;5131085;27;20408;-73
2022/01/28 11:12:50;;;;;;;8.83;6.70;;;;;;;13.07;32.35;101616.31;5130851;27;20500;-74
2022/01/28 11:15:17;;;;;;;12.43;6.22;;;;;;;13.64;31.77;101614.47;5112554;27;20512;-73
2022/01/28 11:17:44;;;;;;;9.20;7.43;;;;;;;14.62;30.33;101606.28;5128534;27;20501;-71
2022/01/28 11:20:15;;;;;;;13.90;8.55;;;;;;;13.69;31.12;101614.94;5110938;27;21000;-73
2022/01/28 11:22:52;;;;;;;11.27;8.02;;;;;;;13.83;30.84;101606.66;5130426;27;20410;-73
2022/01/28 11:25:41;;;;;;;10.40;7.65;;;;;;;13.88;30.84;101605.44;5130581;27;20409;-74
2022/01/28 11:28:14;;;;;;;12.52;9.90;;;;;;;13.84;31.70;101615.50;5130508;27;20780;-74
2022/01/28 11:30:49;;;;;;;10.65;9.13;;;;;;;14.22;31.26;101606.13;5130486;27;20417;-75
2022/01/28 11:33:17;;;;;;;12.85;9.93;;;;;;;13.70;31.95;101605.97;5130448;27;20940;-74
2022/01/28 11:36:00;;;;;;;9.50;8.50;;;;;;;13.96;31.47;101602.97;5130721;27;20402;-75
2022/01/28 11:38:51;;;;;;;11.07;8.37;;;;;;;14.03;31.47;101590.84;5129481;27;20957;-75
2022/01/28 11:41:25;;;;;;;13.25;10.30;;;;;;;14.06;31.06;101597.75;5109058;28;20916;-73
2022/01/28 11:43:55;;;;;;;28.43;21.77;;;;;;;14.25;29.99;101602.34;5111387;28;20453;-74
2022/01/28 11:46:24;;;;;;;19.35;15.80;;;;;;;14.41;29.80;101610.75;5129623;28;20406;-73
2022/01/28 11:49:10;;;;;;;11.75;9.75;;;;;;;14.02;30.11;101613.13;5130388;28;20433;-74
2022/01/28 11:51:39;;;;;;;11.52;9.13;;;;;;;14.19;30.20;101620.56;5128983;27;20492;-74
2022/01/28 11:54:08;;;;;;;13.20;10.27;;;;;;;13.55;30.42;101620.56;5115981;27;20409;-73
2022/01/28 11:56:39;;;;;;;55.25;37.78;;;;;;;13.52;30.31;101615.47;5133540;27;20903;-73
2022/01/28 11:59:09;;;;;;;9.50;8.40;;;;;;;13.15;30.66;101626.38;5134012;27;20413;-74
2022/01/28 12:02:09;;;;;;;17.40;12.65;;;;;;;12.89;31.02;101621.28;5134597;27;20477;-73
2022/01/28 12:04:37;;;;;;;23.77;16.80;;;;;;;12.92;31.35;101628.19;5132975;27;20417;-72
2022/01/28 12:07:06;;;;;;;29.55;25.45;;;;;;;13.01;30.93;101632.78;5133120;27;20421;-72
2022/01/28 12:09:35;;;;;;;8.88;7.40;;;;;;;12.83;30.98;101635.06;5134280;27;20492;-75
2022/01/28 12:12:02;;;;;;;13.98;10.82;;;;;;;12.74;31.22;101636.63;5134087;27;20413;-75
2022/01/28 12:14:58;;;;;;;16.27;10.80;;;;;;;12.49;31.54;101620.84;5134299;27;20489;-73
2022/01/28 12:17:48;;;;;;;10.43;6.25;;;;;;;12.54;31.40;101629.34;5130852;27;20430;-74
2022/01/28 12:20:35;;;;;;;11.63;6.45;;;;;;;12.40;31.30;101623.25;5133485;27;20460;-74
2022/01/28 12:23:21;;;;;;;11.80;7.80;;;;;;;12.75;30.67;101621.50;5133183;27;20505;-73
2022/01/28 12:25:55;;;;;;;10.73;6.38;;;;;;;12.48;31.38;101619.16;5132934;27;20484;-74
2022/01/28 12:28:24;;;;;;;9.48;7.05;;;;;;;12.32;31.65;101630.97;5133695;27;20925;-73